sensor_id;sensor_type;location;lat;lon;timestamp;P1;durP1;ratioP1;P2;durP2;ratioP2
57301;SDS011;43149;50.974;18.224;2022-11-02T00:00:13;22.40;;;14.00;;
57301;SDS011;43149;50.974;18.224;2022-11-02T00:09:59;33.30;;;18.30;;
57301;SDS011;43149;50.974;18.224;2022-11-02T00:19:42;19.90;;;11.30;;
57301;SDS011;43149;50.974;18.224;2022-11-02T00:26:59;40.20;;;26.10;;
57301;SDS011;43149;50.974;18.224;2022-11-02T00:36:43;30.00;;;18.10;;
57301;SDS011;43149;50.974;18.224;2022-11-02T00:46:25;26.20;;;15.80;;
57301;SDS011;43149;50.974;18.224;2022-11-02T00:56:08;25.20;;;16.60;;
57301;SDS011;43149;50.974;18.224;2022-11-02T01:05:55;47.20;;;21.20;;
57301;SDS011;43149;50.974;18.224;2022-11-02T01:15:38;24.40;;;13.80;;
57301;SDS011;43149;50.974;18.224;2022-11-02T01:25:22;25.50;;;15.10;;
57301;SDS011;43149;50.974;18.224;2022-11-02T01:27:48;48.90;;;28.10;;
57301;SDS011;43149;50.974;18.224;2022-11-02T01:37:30;36.50;;;18.00;;
57301;SDS011;43149;50.974;18.224;2022-11-02T01:54:41;14.50;;;9.60;;
57301;SDS011;43149;50.974;18.224;2022-11-02T02:04:40;28.90;;;17.70;;
57301;SDS011;43149;50.974;18.224;2022-11-02T02:14:22;34.90;;;17.30;;
57301;SDS011;43149;50.974;18.224;2022-11-02T02:24:50;27.60;;;15.40;;
57301;SDS011;43149;50.974;18.224;2022-11-02T02:34:57;27.70;;;16.40;;
57301;SDS011;43149;50.974;18.224;2022-11-02T02:55:39;35.50;;;17.70;;
57301;SDS011;43149;50.974;18.224;2022-11-02T03:15:19;32.80;;;18.20;;
57301;SDS011;43149;50.974;18.224;2022-11-02T03:25:36;27.80;;;18.10;;
57301;SDS011;43149;50.974;18.224;2022-11-02T03:35:43;29.50;;;15.30;;
57301;SDS011;43149;50.974;18.224;2022-11-02T03:45:42;22.10;;;11.00;;
57301;SDS011;43149;50.974;18.224;2022-11-02T03:55:35;49.30;;;18.30;;
57301;SDS011;43149;50.974;18.224;2022-11-02T04:13:23;31.10;;;17.90;;
57301;SDS011;43149;50.974;18.224;2022-11-02T04:23:43;42.80;;;18.60;;
57301;SDS011;43149;50.974;18.224;2022-11-02T04:33:44;25.50;;;13.20;;
57301;SDS011;43149;50.974;18.224;2022-11-02T04:43:52;32.60;;;14.80;;
57301;SDS011;43149;50.974;18.224;2022-11-02T05:00:52;37.30;;;19.40;;
57301;SDS011;43149;50.974;18.224;2022-11-02T05:10:35;29.00;;;17.20;;
57301;SDS011;43149;50.974;18.224;2022-11-02T05:20:17;18.30;;;13.80;;
57301;SDS011;43149;50.974;18.224;2022-11-02T05:30:00;26.70;;;16.00;;
57301;SDS011;43149;50.974;18.224;2022-11-02T05:39:43;46.20;;;20.50;;
57301;SDS011;43149;50.974;18.224;2022-11-02T05:44:34;66.60;;;33.90;;
57301;SDS011;43149;50.974;18.224;2022-11-02T06:01:35;44.30;;;20.00;;
57301;SDS011;43149;50.974;18.224;2022-11-02T06:11:17;35.40;;;18.40;;
57301;SDS011;43149;50.974;18.224;2022-11-02T06:16:10;62.20;;;34.90;;
57301;SDS011;43149;50.974;18.224;2022-11-02T06:25:56;51.80;;;24.50;;
57301;SDS011;43149;50.974;18.224;2022-11-02T06:43:05;52.60;;;24.70;;
57301;SDS011;43149;50.974;18.224;2022-11-02T06:52:49;29.70;;;14.90;;
57301;SDS011;43149;50.974;18.224;2022-11-02T07:02:34;35.00;;;20.90;;
57301;SDS011;43149;50.974;18.224;2022-11-02T07:19:35;26.60;;;15.00;;
57301;SDS011;43149;50.974;18.224;2022-11-02T07:29:19;12.90;;;10.00;;
57301;SDS011;43149;50.974;18.224;2022-11-02T07:39:02;10.10;;;6.00;;
57301;SDS011;43149;50.974;18.224;2022-11-02T07:48:46;15.40;;;10.40;;
57301;SDS011;43149;50.974;18.224;2022-11-02T07:58:29;20.40;;;11.30;;
57301;SDS011;43149;50.974;18.224;2022-11-02T08:08:16;17.20;;;11.50;;
57301;SDS011;43149;50.974;18.224;2022-11-02T08:27:45;17.30;;;6.60;;
57301;SDS011;43149;50.974;18.224;2022-11-02T08:37:28;13.60;;;8.50;;
57301;SDS011;43149;50.974;18.224;2022-11-02T08:54:33;3.30;;;3.00;;
57301;SDS011;43149;50.974;18.224;2022-11-02T09:11:33;19.30;;;7.00;;
57301;SDS011;43149;50.974;18.224;2022-11-02T09:13:58;17.70;;;8.90;;
57301;SDS011;43149;50.974;18.224;2022-11-02T09:23:42;17.30;;;4.60;;
57301;SDS011;43149;50.974;18.224;2022-11-02T09:33:25;25.00;;;14.10;;
57301;SDS011;43149;50.974;18.224;2022-11-02T09:53:30;6.40;;;4.10;;
57301;SDS011;43149;50.974;18.224;2022-11-02T10:03:27;6.20;;;4.00;;
57301;SDS011;43149;50.974;18.224;2022-11-02T10:13:57;3.10;;;2.60;;
57301;SDS011;43149;50.974;18.224;2022-11-02T10:23:53;2.80;;;2.40;;
57301;SDS011;43149;50.974;18.224;2022-11-02T10:33:54;5.10;;;1.60;;
57301;SDS011;43149;50.974;18.224;2022-11-02T10:44:30;3.50;;;3.20;;
57301;SDS011;43149;50.974;18.224;2022-11-02T10:55:10;21.40;;;6.80;;
57301;SDS011;43149;50.974;18.224;2022-11-02T11:05:34;4.10;;;2.40;;
57301;SDS011;43149;50.974;18.224;2022-11-02T11:15:20;2.10;;;1.80;;
57301;SDS011;43149;50.974;18.224;2022-11-02T11:25:32;3.20;;;2.90;;
57301;SDS011;43149;50.974;18.224;2022-11-02T11:35:22;4.80;;;2.20;;
57301;SDS011;43149;50.974;18.224;2022-11-02T11:45:27;17.50;;;4.60;;
57301;SDS011;43149;50.974;18.224;2022-11-02T11:55:45;4.50;;;2.60;;
57301;SDS011;43149;50.974;18.224;2022-11-02T12:26:51;0.40;;;0.40;;
57301;SDS011;43149;50.974;18.224;2022-11-02T12:47:56;3.70;;;1.90;;
57301;SDS011;43149;50.974;18.224;2022-11-02T12:58:19;5.90;;;3.30;;
57301;SDS011;43149;50.974;18.224;2022-11-02T13:08:18;6.80;;;2.80;;
57301;SDS011;43149;50.974;18.224;2022-11-02T13:33:22;2.60;;;1.90;;
57301;SDS011;43149;50.974;18.224;2022-11-02T13:43:34;4.80;;;1.80;;
57301;SDS011;43149;50.974;18.224;2022-11-02T14:04:12;8.60;;;1.80;;
57301;SDS011;43149;50.974;18.224;2022-11-02T14:14:22;3.40;;;2.50;;
57301;SDS011;43149;50.974;18.224;2022-11-02T14:52:31;13.30;;;4.30;;
57301;SDS011;43149;50.974;18.224;2022-11-02T15:32:30;19.20;;;6.10;;
57301;SDS011;43149;50.974;18.224;2022-11-02T16:03:08;10.50;;;6.80;;
57301;SDS011;43149;50.974;18.224;2022-11-02T16:13:37;17.80;;;8.00;;
57301;SDS011;43149;50.974;18.224;2022-11-02T16:23:38;5.80;;;5.20;;
57301;SDS011;43149;50.974;18.224;2022-11-02T16:33:38;10.60;;;7.40;;
57301;SDS011;43149;50.974;18.224;2022-11-02T16:43:26;12.00;;;6.10;;
57301;SDS011;43149;50.974;18.224;2022-11-02T16:53:26;12.00;;;7.90;;
57301;SDS011;43149;50.974;18.224;2022-11-02T17:03:27;23.00;;;11.40;;
57301;SDS011;43149;50.974;18.224;2022-11-02T17:20:45;35.60;;;15.30;;
57301;SDS011;43149;50.974;18.224;2022-11-02T17:31:15;23.70;;;10.20;;
57301;SDS011;43149;50.974;18.224;2022-11-02T17:41:05;18.70;;;12.30;;
57301;SDS011;43149;50.974;18.224;2022-11-02T17:58:24;24.70;;;9.80;;
57301;SDS011;43149;50.974;18.224;2022-11-02T18:08:11;17.40;;;7.20;;
57301;SDS011;43149;50.974;18.224;2022-11-02T18:18:01;49.20;;;16.80;;
57301;SDS011;43149;50.974;18.224;2022-11-02T18:27:45;38.10;;;13.70;;
57301;SDS011;43149;50.974;18.224;2022-11-02T18:37:31;13.90;;;9.10;;
57301;SDS011;43149;50.974;18.224;2022-11-02T18:47:14;30.10;;;14.80;;
57301;SDS011;43149;50.974;18.224;2022-11-02T18:56:57;24.50;;;10.90;;
57301;SDS011;43149;50.974;18.224;2022-11-02T19:06:44;39.20;;;18.00;;
57301;SDS011;43149;50.974;18.224;2022-11-02T19:16:53;46.30;;;19.00;;
57301;SDS011;43149;50.974;18.224;2022-11-02T19:26:37;80.30;;;29.00;;
57301;SDS011;43149;50.974;18.224;2022-11-02T19:43:39;33.20;;;18.60;;
57301;SDS011;43149;50.974;18.224;2022-11-02T19:53:44;57.80;;;23.90;;
57301;SDS011;43149;50.974;18.224;2022-11-02T20:03:35;38.90;;;16.70;;
57301;SDS011;43149;50.974;18.224;2022-11-02T20:13:41;21.10;;;9.20;;
57301;SDS011;43149;50.974;18.224;2022-11-02T20:23:29;30.50;;;14.70;;
57301;SDS011;43149;50.974;18.224;2022-11-02T20:33:19;38.60;;;17.10;;
57301;SDS011;43149;50.974;18.224;2022-11-02T20:43:04;57.30;;;25.10;;
57301;SDS011;43149;50.974;18.224;2022-11-02T20:52:56;24.80;;;12.80;;
57301;SDS011;43149;50.974;18.224;2022-11-02T21:02:42;20.30;;;8.40;;
57301;SDS011;43149;50.974;18.224;2022-11-02T21:12:27;18.90;;;10.50;;
57301;SDS011;43149;50.974;18.224;2022-11-02T21:22:29;15.40;;;8.40;;
57301;SDS011;43149;50.974;18.224;2022-11-02T21:32:13;24.40;;;12.30;;
57301;SDS011;43149;50.974;18.224;2022-11-02T21:41:58;18.80;;;11.10;;
57301;SDS011;43149;50.974;18.224;2022-11-02T21:51:41;17.80;;;11.40;;
57301;SDS011;43149;50.974;18.224;2022-11-02T22:01:27;12.60;;;7.40;;
57301;SDS011;43149;50.974;18.224;2022-11-02T22:11:49;23.10;;;13.50;;
57301;SDS011;43149;50.974;18.224;2022-11-02T22:21:52;13.50;;;7.60;;
57301;SDS011;43149;50.974;18.224;2022-11-02T22:31:39;24.60;;;10.80;;
57301;SDS011;43149;50.974;18.224;2022-11-02T22:41:39;8.70;;;5.10;;
57301;SDS011;43149;50.974;18.224;2022-11-02T22:51:41;5.60;;;4.10;;
57301;SDS011;43149;50.974;18.224;2022-11-02T23:01:28;13.10;;;6.00;;
57301;SDS011;43149;50.974;18.224;2022-11-02T23:11:13;38.70;;;12.30;;
57301;SDS011;43149;50.974;18.224;2022-11-02T23:21:36;39.40;;;12.90;;
57301;SDS011;43149;50.974;18.224;2022-11-02T23:31:58;52.20;;;15.40;;
57301;SDS011;43149;50.974;18.224;2022-11-02T23:50:10;41.00;;;11.20;;
57301;SDS011;43149;50.974;18.224;2022-11-02T23:52:36;39.70;;;18.90;;
